Terminal Aerodrome Forecast
Issued by NWS Greer, SC

Home | Current Version | Previous Version | Text Only | Print | Product List | Glossary On
Versions: 1 2 3 4 5 6 7 8 9 10 11 12 13 14 15 16 17 18
000
FTUS42 KGSP 271404 AAB
TAFAVL
TAF AMD
KAVL 271404Z 2714/2812 35006KT P6SM SCT005 BKN100
      TEMPO 2714/2715 BKN005
     FM271500 33006KT P6SM VCSH BKN050
     FM271700 30005KT 6SM -SHRA VCTS BKN050CB
     FM272100 31005KT P6SM BKN050 PROB30 2723/2724 4SM TSRA OVC025CB
     FM280800 33003KT 3SM BR SCT020=

USA.gov is the U.S. government's official web portal to all federal, state and local government web resources and services.